Morat-Fribourg, une classique moderne ! Morat-Fribourg, la classique moderne ! Morat-Fribourg, la classique moderne ! Bienvenue à la Migros
FR  DE
RangEquipe / Nom PrénomTempsCat.RangGénéral  
1. FREE-BOURG RUNNERS 6:31'19",2   
  Meszaros Thomas 59'02",2M201719
  Vieira Goncalves Paulo 1:01'17",4M40430
  Carvalho Sergio 1:02'43",7M40845
  Almeida Nuno 1:07'39",4M2081127
  Mettraux Julien 1:09'38",3M20118197
  Gendre Grégoire 1:10'58",2M20146253
2. Footing Club Lausaane Hommes 1 6:33'27",0   
  Pointet Jérémy 58'31",1M201313
  Frajtag Pavel 1:05'06",6M401165
  Fauria Torrent Oriol 1:06'31",3M206191
  Gilliéron Christophe 1:06'49",6M502101
  Velati Alan 1:08'05",2M2089139
  Fantoli Régis 1:08'23",2M4030155
3. TSV Rechthalten 6:38'44",0   
  Brügger Werner 1:03'40",0M40952
  Gremaud Simon 1:05'26",4JunH270
  Rotzetter Marc 1:05'51",2CadH175
  Torche Julien 1:06'15",8JunH583
  Vonlanthen Mario 1:06'50",4M4510102
  Vonlanthen Yvan 1:10'40",2M20141242
4. LAT Sense 1 6:39'27",6   
  Vogelsang Luca 1:01'03",2M202528
  Huber Erich 1:02'32",8M203442
  Sturny Florian 1:06'55",9M2068104
  Tschopp Sebastian 1:07'22",1M2072114
  Schwab Benjamin 1:10'21",5M20135233
  Renggli Nico 1:11'12",1JunH11265
5. CAG Farvagny 1 6:48'28",5   
  Berset Pascal 1:05'12",8M204967
  Marchon Thierry 1:06'24",2M206089
  Glannaz Olivier 1:08'20",3M4028152
  Piccand Cédric 1:08'38",7M4034163
  Romanens Pierre 1:09'08",3M4038182
  Kolly Eric 1:10'44",2M5011245
1 2 3 
 © 2017 Course Morat-Fribourg
Design by Atelier 32, Fribourg - Powered by CISEL Informatique SA, Matran